Time;durP1;ratioP1;P1;durP2;ratioP2;P2;SDS_P1;SDS_P2;PMS_P1;PMS_P2;Temp;Humidity;BMP_temperature;BMP_pressure;BME280_temperature;BME280_humidity;BME280_pressure;Samples;Min_cycle;Max_cycle;Signal;HPM_P1;HPM_P2
2021/07/20 00:02:43;;;;;;;14.27;8.77;;;15.20;99.90;;;;;;5074022;28;20401;-63
2021/07/20 00:05:11;;;;;;;14.90;9.20;;;15.30;99.90;;;;;;5073577;28;20261;-64
2021/07/20 00:07:37;;;;;;;12.30;9.07;;;15.20;99.90;;;;;;5072297;28;20457;-62
2021/07/20 00:10:13;;;;;;;9.80;8.40;;;15.20;99.90;;;;;;5071101;28;20409;-62
2021/07/20 00:12:39;;;;;;;10.90;9.20;;;15.20;99.90;;;;;;5073275;28;20166;-62
2021/07/20 00:15:08;;;;;;;10.00;8.13;;;15.10;99.90;;;;;;5073238;28;20496;-62
2021/07/20 00:17:34;;;;;;;9.07;7.87;;;15.20;99.90;;;;;;5072508;28;20508;-62
2021/07/20 00:20:02;;;;;;;11.03;8.50;;;15.10;99.90;;;;;;5072850;28;20402;-62
2021/07/20 00:22:28;;;;;;;12.80;9.60;;;15.10;99.90;;;;;;5075500;28;20401;-62
2021/07/20 00:24:53;;;;;;;15.80;8.80;;;15.00;99.90;;;;;;5075642;28;20409;-63
2021/07/20 00:27:19;;;;;;;11.93;9.00;;;15.00;99.90;;;;;;5075351;28;20199;-62
2021/07/20 00:29:44;;;;;;;10.70;9.03;;;15.00;99.90;;;;;;5075925;28;20171;-62
2021/07/20 00:32:10;;;;;;;11.73;9.47;;;15.00;99.90;;;;;;5075609;28;20198;-63
2021/07/20 00:34:36;;;;;;;11.67;8.70;;;15.00;99.90;;;;;;5072128;28;20164;-62
2021/07/20 00:37:02;;;;;;;9.37;7.50;;;15.00;99.90;;;;;;5072088;28;20569;-63
2021/07/20 00:39:27;;;;;;;10.27;8.00;;;15.00;99.90;;;;;;5072062;28;20206;-63
2021/07/20 00:41:54;;;;;;;9.90;8.97;;;14.90;99.90;;;;;;5072236;28;20210;-63
2021/07/20 00:44:19;;;;;;;11.40;10.13;;;14.90;99.90;;;;;;5072011;28;20182;-62
2021/07/20 00:46:45;;;;;;;10.97;8.70;;;14.70;99.90;;;;;;5071620;28;20796;-62
2021/07/20 00:49:10;;;;;;;9.87;8.87;;;14.70;99.90;;;;;;5072214;28;20210;-63
2021/07/20 00:51:36;;;;;;;12.40;7.93;;;14.90;99.90;;;;;;5072062;28;20660;-62
2021/07/20 00:54:03;;;;;;;9.40;7.53;;;14.90;99.90;;;;;;5071899;28;20171;-62
2021/07/20 00:56:28;;;;;;;7.47;6.70;;;14.80;99.90;;;;;;5071609;28;20167;-63
2021/07/20 00:58:54;;;;;;;8.60;7.70;;;14.90;99.90;;;;;;5071929;28;20540;-63
2021/07/20 01:01:21;;;;;;;9.40;7.40;;;14.70;99.90;;;;;;5071602;28;20216;-63
2021/07/20 01:03:46;;;;;;;12.40;8.13;;;14.80;99.90;;;;;;5071691;28;20449;-62
2021/07/20 01:06:13;;;;;;;9.20;8.30;;;14.70;99.90;;;;;;5071438;28;20494;-64
2021/07/20 01:08:42;;;;;;;8.60;7.80;;;14.60;99.90;;;;;;5071700;28;20673;-63
2021/07/20 01:11:08;;;;;;;8.83;7.87;;;14.60;99.90;;;;;;5071697;28;20457;-63
2021/07/20 01:13:36;;;;;;;9.07;7.80;;;14.60;99.90;;;;;;5071714;28;20425;-63
2021/07/20 01:16:02;;;;;;;9.57;8.13;;;14.70;99.90;;;;;;5071261;28;20171;-63
2021/07/20 01:18:28;;;;;;;8.77;7.47;;;14.50;99.90;;;;;;5072002;28;20482;-62
2021/07/20 01:20:55;;;;;;;9.20;8.20;;;14.50;99.90;;;;;;5071178;28;20496;-62
2021/07/20 01:23:44;;;;;;;8.17;7.37;;;14.50;99.90;;;;;;5071630;28;20424;-62
2021/07/20 01:26:09;;;;;;;8.80;7.90;;;14.40;99.90;;;;;;5071352;28;20543;-62
2021/07/20 01:28:37;;;;;;;11.33;8.23;;;14.40;99.90;;;;;;5071481;28;20902;-63
2021/07/20 01:31:06;;;;;;;10.43;8.40;;;14.30;99.90;;;;;;5071514;28;20167;-62
2021/07/20 01:33:35;;;;;;;9.10;8.17;;;14.40;99.90;;;;;;5071568;28;20412;-62
2021/07/20 01:36:03;;;;;;;9.63;7.63;;;14.50;99.90;;;;;;5071124;28;20412;-63
2021/07/20 01:38:30;;;;;;;8.97;7.70;;;14.90;99.90;;;;;;5071541;28;20519;-62
2021/07/20 01:41:00;;;;;;;10.23;8.37;;;15.20;99.90;;;;;;5071477;28;20402;-62
2021/07/20 01:43:27;;;;;;;10.60;7.60;;;15.30;99.90;;;;;;5071469;28;20401;-62
2021/07/20 01:45:57;;;;;;;10.23;8.40;;;15.10;99.90;;;;;;5071465;28;20799;-62
2021/07/20 01:48:25;;;;;;;9.47;8.57;;;15.30;99.90;;;;;;5071282;28;20448;-62
2021/07/20 01:50:52;;;;;;;8.90;8.00;;;15.50;99.90;;;;;;5071475;28;20505;-62
2021/07/20 01:53:19;;;;;;;12.03;8.33;;;15.60;99.90;;;;;;5071301;28;20780;-62
2021/07/20 01:55:45;;;;;;;8.30;7.13;;;15.70;99.90;;;;;;5071415;28;20511;-63
2021/07/20 01:58:10;;;;;;;8.80;7.80;;;15.60;99.90;;;;;;5070932;28;20443;-62
2021/07/20 02:00:36;;;;;;;10.77;8.87;;;15.60;99.90;;;;;;5071308;28;20187;-63
2021/07/20 02:10:48;;;;;;;9.03;7.60;;;15.80;99.90;;;;;;5071565;28;20405;-63
2021/07/20 02:13:16;;;;;;;8.17;7.33;;;15.80;99.90;;;;;;5071110;28;20454;-62
2021/07/20 02:15:43;;;;;;;6.93;6.33;;;15.70;99.90;;;;;;5071455;28;20160;-62
2021/07/20 02:18:09;;;;;;;8.53;7.13;;;15.70;99.90;;;;;;5070935;28;20465;-63
2021/07/20 02:20:40;;;;;;;8.00;6.70;;;15.70;99.90;;;;;;5071131;28;20806;-62
2021/07/20 02:23:07;;;;;;;8.10;7.20;;;15.70;99.90;;;;;;5071137;28;20423;-63
2021/07/20 02:25:33;;;;;;;9.30;8.00;;;15.80;99.90;;;;;;5071261;28;20393;-62
2021/07/20 02:28:00;;;;;;;8.27;7.50;;;15.70;99.90;;;;;;5070644;28;21032;-62
2021/07/20 02:30:26;;;;;;;8.20;7.00;;;15.80;99.90;;;;;;5071233;28;20758;-62
2021/07/20 02:32:53;;;;;;;8.00;7.30;;;15.80;99.90;;;;;;5072179;28;20413;-62
2021/07/20 02:35:25;;;;;;;8.40;7.60;;;15.80;99.90;;;;;;5074433;28;20408;-63
2021/07/20 02:37:53;;;;;;;10.03;8.13;;;15.80;99.90;;;;;;5074288;28;20432;-63
2021/07/20 02:40:22;;;;;;;8.20;6.93;;;15.80;99.90;;;;;;5074500;28;20543;-62
2021/07/20 02:42:49;;;;;;;8.10;7.30;;;15.80;99.90;;;;;;5074487;28;20414;-63
2021/07/20 02:45:14;;;;;;;10.77;7.70;;;15.80;99.90;;;;;;5074393;28;20405;-63
2021/07/20 02:47:42;;;;;;;6.97;6.03;;;15.70;99.90;;;;;;5073991;28;21015;-63
2021/07/20 02:50:10;;;;;;;9.40;6.57;;;15.70;99.90;;;;;;5074216;28;20406;-63
2021/07/20 02:52:38;;;;;;;7.50;6.80;;;15.70;99.90;;;;;;5074444;28;20492;-63
2021/07/20 02:55:04;;;;;;;12.50;7.57;;;15.60;99.90;;;;;;5074152;28;20424;-63
2021/07/20 02:57:32;;;;;;;8.73;7.67;;;15.50;99.90;;;;;;5074000;28;20421;-63
2021/07/20 02:59:59;;;;;;;7.30;6.47;;;15.50;99.90;;;;;;5074028;28;20429;-63
2021/07/20 03:02:26;;;;;;;8.03;7.23;;;15.60;99.90;;;;;;5074132;28;20451;-62
2021/07/20 03:04:52;;;;;;;6.60;5.90;;;15.60;99.90;;;;;;5073908;28;20397;-63
2021/07/20 03:07:24;;;;;;;8.77;7.03;;;15.60;99.90;;;;;;5073725;28;20528;-63
2021/07/20 03:09:55;;;;;;;8.10;7.30;;;15.60;99.90;;;;;;5074169;28;20848;-63
2021/07/20 03:12:23;;;;;;;7.70;6.90;;;15.60;99.90;;;;;;5073927;28;20393;-63
2021/07/20 03:14:52;;;;;;;6.33;5.73;;;15.60;99.90;;;;;;5073748;28;20393;-63
2021/07/20 03:17:21;;;;;;;6.77;6.20;;;15.60;99.90;;;;;;5073542;28;20417;-62
2021/07/20 03:19:48;;;;;;;6.33;5.73;;;15.60;99.90;;;;;;5073814;28;20397;-62
2021/07/20 03:22:16;;;;;;;8.33;6.93;;;15.60;99.90;;;;;;5073703;28;20834;-63
2021/07/20 03:24:44;;;;;;;6.90;6.17;;;15.60;99.90;;;;;;5073733;28;20413;-62
2021/07/20 03:27:11;;;;;;;10.07;6.90;;;15.50;99.90;;;;;;5073135;28;20898;-63
2021/07/20 03:29:42;;;;;;;7.00;6.30;;;15.50;99.90;;;;;;5073616;28;20808;-63
2021/07/20 03:32:15;;;;;;;7.00;6.40;;;15.50;99.90;;;;;;5073667;28;20779;-63
2021/07/20 03:34:43;;;;;;;6.23;5.63;;;15.50;99.90;;;;;;5073551;28;20397;-63
2021/07/20 03:37:09;;;;;;;6.70;6.00;;;15.40;99.90;;;;;;5073085;28;20929;-62
2021/07/20 03:39:40;;;;;;;6.50;5.90;;;15.40;99.90;;;;;;5073535;28;20936;-63
2021/07/20 03:42:10;;;;;;;7.17;6.23;;;15.40;99.90;;;;;;5073295;28;20437;-62
2021/07/20 03:44:37;;;;;;;6.10;5.50;;;15.30;99.90;;;;;;5073096;28;20405;-63
2021/07/20 03:47:03;;;;;;;6.13;5.53;;;15.30;99.90;;;;;;5072799;28;20969;-62
2021/07/20 03:49:29;;;;;;;6.70;6.10;;;15.30;99.90;;;;;;5073174;28;20402;-63
2021/07/20 03:51:58;;;;;;;8.80;5.90;;;15.30;99.90;;;;;;5073173;28;20774;-62
2021/07/20 03:54:26;;;;;;;7.00;6.30;;;15.30;99.90;;;;;;5072963;28;20402;-63
2021/07/20 03:56:54;;;;;;;9.43;6.63;;;15.30;99.90;;;;;;5072880;28;20841;-63
2021/07/20 03:59:22;;;;;;;6.37;5.63;;;15.30;99.90;;;;;;5072817;28;20492;-62
2021/07/20 04:01:48;;;;;;;6.27;5.67;;;15.30;99.90;;;;;;5073064;28;20418;-62
2021/07/20 04:04:17;;;;;;;6.47;5.87;;;15.30;99.90;;;;;;5072763;28;20445;-62
2021/07/20 04:06:44;;;;;;;6.70;6.10;;;15.30;99.90;;;;;;5072516;28;20524;-63
2021/07/20 04:09:11;;;;;;;5.70;5.10;;;15.30;99.90;;;;;;5072729;28;20413;-63
2021/07/20 04:11:39;;;;;;;7.00;5.47;;;15.30;99.90;;;;;;5072997;28;20409;-62
2021/07/20 04:14:05;;;;;;;6.00;5.50;;;15.30;99.90;;;;;;5072583;28;20455;-62
2021/07/20 04:16:33;;;;;;;6.47;5.77;;;15.20;99.90;;;;;;5072322;28;20450;-63
2021/07/20 04:18:58;;;;;;;8.07;6.70;;;15.30;99.90;;;;;;5072504;28;20458;-62
2021/07/20 04:21:24;;;;;;;7.50;6.20;;;15.30;99.90;;;;;;5072505;28;20484;-63
2021/07/20 04:23:51;;;;;;;6.50;5.90;;;15.20;99.90;;;;;;5073122;28;20178;-62
2021/07/20 04:26:18;;;;;;;6.73;6.10;;;15.20;99.90;;;;;;5072258;28;20250;-62
2021/07/20 04:28:44;;;;;;;6.93;6.07;;;15.20;99.90;;;;;;5072250;28;20965;-62
2021/07/20 04:31:12;;;;;;;6.73;5.67;;;15.20;99.90;;;;;;5072429;28;20405;-62
2021/07/20 04:33:39;;;;;;;6.27;5.57;;;15.20;99.90;;;;;;5072287;28;20408;-62
2021/07/20 04:36:06;;;;;;;6.47;5.87;;;15.30;99.90;;;;;;5071902;28;20801;-62
2021/07/20 04:38:35;;;;;;;6.57;6.00;;;15.30;99.90;;;;;;5072225;28;20425;-62
2021/07/20 04:41:01;;;;;;;6.53;5.93;;;15.30;99.90;;;;;;5072319;28;20471;-62
2021/07/20 04:43:27;;;;;;;5.70;5.10;;;15.30;99.90;;;;;;5072168;28;20402;-62
2021/07/20 04:45:54;;;;;;;7.00;6.30;;;15.20;99.90;;;;;;5072053;28;20159;-62
2021/07/20 04:48:20;;;;;;;5.80;5.13;;;15.20;99.90;;;;;;5071718;28;20452;-62
2021/07/20 04:50:48;;;;;;;5.90;5.40;;;15.30;99.90;;;;;;5072045;28;20427;-62
2021/07/20 04:53:14;;;;;;;6.80;6.20;;;15.30;99.90;;;;;;5072110;28;20393;-62
2021/07/20 04:55:41;;;;;;;6.13;5.63;;;15.40;99.90;;;;;;5071488;28;20457;-62
2021/07/20 04:58:07;;;;;;;6.97;6.27;;;15.40;99.90;;;;;;5071921;28;20468;-62
2021/07/20 05:00:34;;;;;;;6.60;4.80;;;15.50;99.90;;;;;;5071875;28;20464;-62
2021/07/20 05:03:01;;;;;;;6.03;5.47;;;15.50;99.90;;;;;;5070589;28;20178;-62
2021/07/20 05:05:30;;;;;;;5.97;5.47;;;15.50;99.90;;;;;;5072092;28;20409;-62
2021/07/20 05:07:58;;;;;;;6.00;5.50;;;15.60;99.90;;;;;;5071479;28;20595;-62
2021/07/20 05:10:25;;;;;;;5.97;5.40;;;15.60;99.90;;;;;;5072029;28;20402;-62
2021/07/20 05:12:51;;;;;;;8.70;5.60;;;15.60;99.90;;;;;;5071705;28;20402;-62
2021/07/20 05:15:18;;;;;;;6.27;5.67;;;15.60;99.90;;;;;;5071982;28;20401;-62
2021/07/20 05:17:46;;;;;;;6.67;6.00;;;15.70;99.90;;;;;;5071270;28;20437;-62
2021/07/20 05:20:17;;;;;;;6.90;6.30;;;15.70;99.90;;;;;;5071817;28;20479;-62
2021/07/20 05:22:43;;;;;;;5.93;5.33;;;15.80;99.90;;;;;;5071696;28;20981;-62
2021/07/20 05:25:10;;;;;;;7.63;5.57;;;15.80;99.90;;;;;;5071766;28;20408;-62
2021/07/20 05:27:40;;;;;;;6.30;5.70;;;15.80;99.90;;;;;;5071260;28;20550;-62
2021/07/20 05:30:07;;;;;;;5.90;5.40;;;15.90;99.90;;;;;;5071766;28;20406;-62
2021/07/20 05:32:35;;;;;;;6.23;5.70;;;15.90;99.90;;;;;;5071549;28;20447;-62
2021/07/20 05:35:03;;;;;;;6.53;5.83;;;16.00;99.90;;;;;;5071637;28;20433;-62
2021/07/20 05:37:34;;;;;;;6.10;5.50;;;16.00;99.90;;;;;;5071261;28;20444;-62
2021/07/20 05:40:00;;;;;;;5.97;5.30;;;16.00;99.90;;;;;;5071742;28;20413;-62
2021/07/20 05:42:28;;;;;;;5.80;5.27;;;16.10;99.90;;;;;;5071530;28;20401;-62
2021/07/20 05:44:54;;;;;;;6.63;5.93;;;16.10;99.90;;;;;;5071434;28;20894;-62
2021/07/20 05:47:20;;;;;;;6.07;5.47;;;16.20;99.90;;;;;;5071055;28;20548;-62
2021/07/20 05:49:45;;;;;;;5.20;4.70;;;16.20;99.90;;;;;;5071674;28;20497;-62
2021/07/20 05:52:16;;;;;;;6.00;5.50;;;16.30;99.90;;;;;;5071532;28;20484;-62
2021/07/20 05:54:45;;;;;;;6.27;5.67;;;16.30;99.90;;;;;;5071345;28;20209;-62
2021/07/20 05:57:11;;;;;;;8.60;5.97;;;16.30;99.90;;;;;;5071070;28;20432;-62
2021/07/20 05:59:43;;;;;;;10.67;8.07;;;16.20;99.90;;;;;;5071480;28;20470;-62
2021/07/20 06:02:13;;;;;;;7.00;6.40;;;16.00;99.90;;;;;;5071360;28;20455;-62
2021/07/20 06:04:40;;;;;;;10.40;8.73;;;15.80;99.90;;;;;;5071538;28;20745;-62
2021/07/20 06:07:07;;;;;;;13.13;10.23;;;15.70;99.90;;;;;;5072508;28;20960;-62
2021/07/20 06:09:33;;;;;;;9.33;7.70;;;15.60;99.90;;;;;;5075016;28;20405;-62
2021/07/20 06:12:00;;;;;;;8.97;8.07;;;15.50;99.90;;;;;;5075040;28;20492;-62
2021/07/20 06:14:28;;;;;;;14.93;7.30;;;15.50;99.90;;;;;;5074711;28;20463;-63
2021/07/20 06:16:53;;;;;;;6.83;6.13;;;15.40;99.90;;;;;;5073746;28;20421;-62
2021/07/20 06:19:19;;;;;;;17.10;8.27;;;15.40;99.90;;;;;;5074621;28;20406;-62
2021/07/20 06:21:47;;;;;;;8.90;6.10;;;15.30;99.90;;;;;;5074717;28;20186;-62
2021/07/20 06:24:13;;;;;;;9.73;8.27;;;15.40;99.90;;;;;;5074665;28;20674;-62
2021/07/20 06:26:40;;;;;;;7.70;6.87;;;15.40;99.90;;;;;;5074191;28;20991;-62
2021/07/20 06:29:10;;;;;;;13.00;8.70;;;15.50;99.90;;;;;;5074752;28;20496;-64
2021/07/20 06:31:42;;;;;;;11.90;7.03;;;15.60;99.90;;;;;;5072511;28;20402;-61
2021/07/20 06:34:08;;;;;;;8.90;6.70;;;15.80;99.90;;;;;;5074801;28;20767;-62
2021/07/20 06:36:35;;;;;;;9.10;6.97;;;15.90;99.90;;;;;;5074154;28;20898;-62
2021/07/20 06:39:03;;;;;;;12.73;8.40;;;15.90;99.90;;;;;;5074536;28;20897;-60
2021/07/20 06:41:33;;;;;;;8.63;6.90;;;16.00;99.90;;;;;;5074719;28;20484;-63
2021/07/20 06:43:59;;;;;;;13.00;8.80;;;16.20;99.90;;;;;;5074518;28;20402;-62
2021/07/20 06:46:26;;;;;;;9.90;7.10;;;16.30;99.90;;;;;;5074167;28;20447;-61
2021/07/20 06:48:52;;;;;;;10.67;8.77;;;16.40;99.90;;;;;;5074390;28;20453;-60
2021/07/20 06:51:17;;;;;;;9.33;8.43;;;16.40;99.90;;;;;;5074325;28;20467;-62
2021/07/20 06:53:43;;;;;;;11.40;8.20;;;16.50;99.90;;;;;;5073248;28;20224;-70
2021/07/20 06:56:16;;;;;;;12.17;9.60;;;16.40;99.90;;;;;;5074273;28;20159;-62
2021/07/20 06:58:43;;;;;;;10.60;7.17;;;16.30;99.90;;;;;;5074257;28;20195;-63
2021/07/20 07:01:10;;;;;;;11.80;7.77;;;16.30;99.90;;;;;;5074085;28;20427;-63
2021/07/20 07:03:45;;;;;;;13.20;7.60;;;16.30;99.90;;;;;;5074269;28;20448;-62
2021/07/20 07:06:13;;;;;;;11.40;7.43;;;16.40;99.90;;;;;;5073842;28;20480;-62
2021/07/20 07:08:40;;;;;;;13.27;8.03;;;16.40;99.90;;;;;;5073867;28;20460;-60
2021/07/20 07:11:06;;;;;;;10.83;8.50;;;16.30;99.90;;;;;;5074192;28;20423;-62
2021/07/20 07:13:34;;;;;;;8.87;7.27;;;16.50;99.90;;;;;;5073792;28;20433;-62
2021/07/20 07:16:00;;;;;;;11.90;8.73;;;16.60;99.90;;;;;;5073710;28;20746;-60
2021/07/20 07:18:26;;;;;;;8.50;7.47;;;16.60;99.90;;;;;;5072994;28;20475;-62
2021/07/20 07:20:54;;;;;;;13.53;9.80;;;16.60;99.70;;;;;;5073822;28;20410;-61
2021/07/20 07:23:20;;;;;;;11.80;9.40;;;16.70;99.90;;;;;;5073627;28;20459;-62
2021/07/20 07:25:51;;;;;;;14.30;9.20;;;16.80;99.90;;;;;;5073893;28;20417;-62
2021/07/20 07:28:18;;;;;;;8.03;6.87;;;16.90;99.90;;;;;;5073099;28;20472;-62
2021/07/20 07:30:44;;;;;;;14.37;8.43;;;16.90;99.50;;;;;;5073781;28;20420;-62
2021/07/20 07:33:10;;;;;;;9.53;8.70;;;17.00;98.90;;;;;;5073311;28;20488;-61
2021/07/20 07:35:36;;;;;;;9.83;7.20;;;17.10;98.60;;;;;;5073495;28;20493;-62
2021/07/20 07:38:02;;;;;;;9.23;8.27;;;17.20;98.60;;;;;;5073284;28;20849;-61
2021/07/20 07:40:29;;;;;;;11.77;7.60;;;17.20;97.60;;;;;;5073394;28;20452;-61
2021/07/20 07:42:58;;;;;;;12.60;8.07;;;17.20;97.30;;;;;;5073370;28;20409;-67
2021/07/20 07:45:23;;;;;;;10.53;7.63;;;17.40;98.10;;;;;;5073292;28;20408;-61
2021/07/20 07:47:49;;;;;;;11.97;8.03;;;17.30;96.60;;;;;;5072759;28;20453;-61
2021/07/20 07:50:15;;;;;;;9.70;7.63;;;17.40;96.40;;;;;;5073159;28;20173;-61
2021/07/20 07:52:41;;;;;;;9.07;7.20;;;17.50;97.30;;;;;;5073312;28;20488;-61
2021/07/20 07:55:08;;;;;;;8.70;6.70;;;17.60;97.00;;;;;;5072956;28;20448;-61
2021/07/20 07:57:34;;;;;;;11.33;8.80;;;17.70;97.10;;;;;;5071467;28;20455;-60
2021/07/20 08:00:04;;;;;;;10.90;6.97;;;17.80;97.20;;;;;;5072824;28;20444;-60
2021/07/20 08:02:34;;;;;;;9.00;7.93;;;17.80;96.70;;;;;;5073046;28;20420;-61
2021/07/20 08:05:00;;;;;;;9.53;8.07;;;17.90;97.30;;;;;;5072801;28;20420;-60
2021/07/20 08:07:27;;;;;;;9.13;7.23;;;18.10;97.40;;;;;;5072494;28;20464;-61
2021/07/20 08:09:54;;;;;;;8.60;6.40;;;18.20;97.00;;;;;;5072840;28;20491;-62
2021/07/20 08:12:21;;;;;;;12.20;7.40;;;18.20;96.70;;;;;;5072677;28;20410;-61
2021/07/20 08:14:46;;;;;;;9.97;7.30;;;18.30;95.70;;;;;;5072561;28;20402;-61
2021/07/20 08:17:13;;;;;;;10.27;8.10;;;18.40;96.10;;;;;;5072187;28;20432;-62
2021/07/20 08:19:40;;;;;;;15.20;8.40;;;18.50;95.80;;;;;;5072710;28;20179;-61
2021/07/20 08:22:14;;;;;;;9.87;7.27;;;18.50;95.50;;;;;;5072589;28;20488;-61
2021/07/20 08:24:57;;;;;;;12.00;8.97;;;18.60;95.60;;;;;;5072534;28;20925;-62
2021/07/20 08:27:37;;;;;;;10.80;8.00;;;18.70;95.30;;;;;;5071855;28;20440;-61
2021/07/20 08:30:06;;;;;;;10.50;7.93;;;18.90;95.30;;;;;;5071825;28;20415;-62
2021/07/20 08:32:35;;;;;;;10.63;9.10;;;19.00;94.90;;;;;;5072313;28;20412;-61
2021/07/20 08:35:06;;;;;;;10.63;7.83;;;19.00;94.70;;;;;;5072437;28;20916;-61
2021/07/20 08:37:35;;;;;;;12.20;9.03;;;19.20;95.00;;;;;;5071943;28;20508;-61
2021/07/20 08:40:10;;;;;;;11.20;9.37;;;19.30;93.80;;;;;;5072358;28;20454;-62
2021/07/20 08:42:51;;;;;;;12.03;8.77;;;19.40;94.60;;;;;;5071918;28;20414;-62
2021/07/20 08:45:20;;;;;;;9.87;8.43;;;19.60;94.00;;;;;;5072424;28;20397;-62
2021/07/20 08:48:12;;;;;;;8.47;7.57;;;19.80;94.00;;;;;;5071701;28;20442;-62
2021/07/20 08:50:58;;;;;;;10.30;8.17;;;19.80;92.80;;;;;;5071842;28;20425;-60
2021/07/20 08:53:39;;;;;;;8.50;7.40;;;19.90;93.10;;;;;;5071968;28;20405;-62
2021/07/20 08:56:06;;;;;;;12.70;8.47;;;20.00;92.60;;;;;;5071829;28;20464;-62
2021/07/20 08:58:43;;;;;;;11.30;8.70;;;20.20;92.70;;;;;;5071802;28;20418;-62
2021/07/20 09:01:14;;;;;;;11.63;8.00;;;20.30;92.80;;;;;;5071969;28;20413;-62
2021/07/20 09:03:50;;;;;;;11.70;7.97;;;20.30;92.80;;;;;;5072046;28;20405;-62
2021/07/20 09:06:26;;;;;;;10.20;8.07;;;20.50;92.80;;;;;;5071746;28;20444;-62
2021/07/20 09:09:02;;;;;;;9.60;8.60;;;20.30;91.90;;;;;;5071679;28;20480;-61
2021/07/20 09:11:45;;;;;;;11.53;8.10;;;20.40;92.60;;;;;;5072306;28;20401;-62
2021/07/20 09:14:13;;;;;;;8.60;7.60;;;20.40;92.70;;;;;;5071947;28;20459;-62
2021/07/20 09:16:50;;;;;;;13.27;8.33;;;20.50;92.50;;;;;;5071495;28;20420;-62
2021/07/20 09:19:35;;;;;;;10.70;7.87;;;20.70;92.30;;;;;;5071740;28;20403;-62
2021/07/20 09:22:09;;;;;;;9.90;7.97;;;20.90;92.00;;;;;;5071824;28;20409;-62
2021/07/20 09:24:59;;;;;;;14.20;8.60;;;21.00;92.40;;;;;;5071774;28;20458;-62
2021/07/20 09:27:36;;;;;;;9.90;8.90;;;21.10;92.90;;;;;;5071229;28;20453;-62
2021/07/20 09:30:09;;;;;;;11.67;9.77;;;21.30;91.90;;;;;;5071683;28;20421;-62
2021/07/20 09:33:05;;;;;;;13.83;9.70;;;21.50;91.80;;;;;;5071580;28;20442;-63
2021/07/20 09:35:54;;;;;;;12.70;10.00;;;21.60;91.30;;;;;;5071618;28;20393;-62
2021/07/20 09:38:28;;;;;;;10.80;8.10;;;22.00;91.30;;;;;;5071338;28;20933;-62
2021/07/20 09:41:18;;;;;;;9.67;8.77;;;22.20;90.30;;;;;;5071475;28;20412;-62
2021/07/20 09:43:53;;;;;;;9.60;8.10;;;22.60;91.50;;;;;;5075648;28;20401;-62
2021/07/20 09:46:34;;;;;;;10.77;9.10;;;22.40;88.30;;;;;;5075259;28;20403;-62
2021/07/20 09:49:04;;;;;;;9.47;8.30;;;22.50;89.40;;;;;;5075741;28;20484;-62
2021/07/20 09:51:30;;;;;;;11.10;8.73;;;22.50;90.30;;;;;;5075487;28;20406;-62
2021/07/20 09:54:04;;;;;;;8.53;7.63;;;22.80;91.20;;;;;;5075414;28;20428;-62
2021/07/20 09:57:17;;;;;;;11.73;8.50;;;22.90;90.10;;;;;;5075102;28;20171;-62
2021/07/20 09:59:53;;;;;;;12.00;10.10;;;23.20;87.00;;;;;;5075087;28;20454;-63
2021/07/20 10:02:40;;;;;;;9.00;8.10;;;23.30;89.40;;;;;;5075206;28;20409;-63
2021/07/20 10:05:12;;;;;;;11.67;9.60;;;23.60;87.40;;;;;;5075192;28;20539;-62
2021/07/20 10:07:42;;;;;;;14.60;10.37;;;23.80;86.90;;;;;;5074641;28;20457;-63
2021/07/20 10:10:22;;;;;;;12.90;8.90;;;23.50;83.20;;;;;;5075242;28;20402;-63
2021/07/20 10:12:58;;;;;;;12.97;8.97;;;23.70;85.90;;;;;;5075064;28;20424;-63
2021/07/20 10:15:51;;;;;;;10.43;8.80;;;23.80;86.60;;;;;;5075074;28;20397;-63
2021/07/20 10:18:36;;;;;;;13.30;9.80;;;24.30;86.10;;;;;;5074741;28;20426;-63
2021/07/20 10:21:06;;;;;;;9.80;8.27;;;24.70;88.00;;;;;;5074974;28;20413;-63
2021/07/20 10:23:43;;;;;;;8.97;8.07;;;24.70;84.50;;;;;;5075397;28;20448;-63
2021/07/20 10:26:17;;;;;;;9.17;8.27;;;24.80;84.60;;;;;;5074479;28;20409;-64
2021/07/20 10:28:53;;;;;;;9.00;6.90;;;24.90;83.00;;;;;;5074629;28;20509;-64
2021/07/20 10:31:28;;;;;;;8.97;7.70;;;25.20;80.50;;;;;;5074868;28;20816;-64
2021/07/20 10:34:03;;;;;;;10.37;8.20;;;25.50;81.70;;;;;;5074653;28;20408;-64
2021/07/20 10:36:35;;;;;;;10.10;8.07;;;25.40;81.60;;;;;;5074340;28;20416;-64
2021/07/20 10:39:13;;;;;;;10.60;7.70;;;25.20;81.80;;;;;;5074612;28;20905;-63
2021/07/20 10:42:04;;;;;;;10.07;7.93;;;25.10;79.90;;;;;;5074639;28;20664;-64
2021/07/20 10:44:39;;;;;;;11.60;8.33;;;24.80;80.20;;;;;;5074333;28;20413;-63
2021/07/20 10:47:06;;;;;;;11.10;7.93;;;25.10;82.30;;;;;;5074053;28;20452;-64
2021/07/20 10:49:48;;;;;;;8.90;8.07;;;25.40;80.20;;;;;;5074435;28;20413;-65
2021/07/20 10:52:37;;;;;;;10.03;7.73;;;25.80;80.70;;;;;;5074415;28;20401;-65
2021/07/20 10:55:35;;;;;;;11.97;8.40;;;25.90;80.00;;;;;;5073640;28;20417;-64
2021/07/20 10:58:11;;;;;;;10.40;9.10;;;26.40;80.30;;;;;;5074002;28;20445;-64
2021/07/20 11:01:00;;;;;;;10.87;8.83;;;26.50;78.20;;;;;;5074132;28;20963;-64
2021/07/20 11:03:52;;;;;;;11.00;9.00;;;26.60;75.20;;;;;;5073464;28;20421;-64
2021/07/20 11:06:20;;;;;;;12.63;9.60;;;26.90;77.00;;;;;;5073935;28;20413;-65
2021/07/20 11:08:52;;;;;;;7.87;7.07;;;27.20;75.40;;;;;;5073962;28;20531;-63
2021/07/20 11:11:33;;;;;;;10.97;9.20;;;27.50;74.60;;;;;;5074030;28;20414;-63
2021/07/20 11:14:00;;;;;;;9.63;8.53;;;27.60;73.70;;;;;;5073876;28;20833;-65
2021/07/20 11:16:30;;;;;;;10.40;9.30;;;27.80;75.80;;;;;;5073302;28;20444;-63
2021/07/20 11:18:56;;;;;;;9.87;8.90;;;27.90;73.80;;;;;;5073877;28;20429;-63
2021/07/20 11:21:26;;;;;;;9.87;8.87;;;27.90;72.00;;;;;;5073744;28;20431;-63
2021/07/20 11:23:53;;;;;;;11.23;9.27;;;28.20;76.50;;;;;;5073709;28;20893;-63
2021/07/20 11:26:20;;;;;;;11.17;10.07;;;28.10;72.90;;;;;;5073280;28;20416;-63
2021/07/20 11:28:47;;;;;;;10.30;7.63;;;28.40;72.50;;;;;;5073582;28;20937;-63
2021/07/20 11:31:19;;;;;;;10.50;9.20;;;28.30;71.30;;;;;;5073724;28;20410;-63
2021/07/20 11:33:51;;;;;;;9.60;8.60;;;28.00;71.70;;;;;;5073607;28;20412;-63
2021/07/20 11:36:23;;;;;;;9.43;8.53;;;28.20;72.00;;;;;;5073253;28;20507;-63
2021/07/20 11:38:53;;;;;;;11.33;9.37;;;28.50;73.50;;;;;;5073276;28;20470;-63
2021/07/20 11:41:24;;;;;;;13.00;9.50;;;28.80;71.60;;;;;;5073542;28;20474;-63
2021/07/20 11:43:50;;;;;;;7.83;7.03;;;29.00;66.80;;;;;;5073345;28;20494;-63
2021/07/20 11:46:26;;;;;;;12.20;9.70;;;29.10;71.60;;;;;;5072984;28;20551;-63
2021/07/20 11:49:02;;;;;;;9.73;8.80;;;29.10;67.90;;;;;;5073238;28;20241;-63
2021/07/20 11:51:38;;;;;;;11.27;9.57;;;28.90;69.00;;;;;;5073083;28;20408;-63
2021/07/20 11:54:12;;;;;;;10.47;9.40;;;29.00;66.00;;;;;;5073148;28;20398;-63
2021/07/20 11:57:04;;;;;;;11.30;9.10;;;29.00;65.60;;;;;;5071760;28;20414;-63
2021/07/20 11:59:33;;;;;;;10.90;9.70;;;29.30;70.30;;;;;;5072130;28;20485;-63
2021/07/20 12:02:09;;;;;;;11.27;9.90;;;29.40;69.70;;;;;;5071813;28;20432;-63
2021/07/20 12:04:44;;;;;;;10.47;9.37;;;29.60;69.90;;;;;;5071436;28;20401;-64
2021/07/20 12:07:29;;;;;;;9.10;8.13;;;29.90;73.40;;;;;;5072549;28;20453;-63
2021/07/20 12:10:15;;;;;;;10.10;9.10;;;29.90;69.80;;;;;;5072840;28;20844;-63
2021/07/20 12:12:51;;;;;;;10.17;8.97;;;30.10;69.20;;;;;;5072771;28;20890;-64
2021/07/20 12:15:20;;;;;;;10.23;9.00;;;30.20;71.80;;;;;;5072766;28;20426;-63
2021/07/20 12:17:49;;;;;;;11.97;9.67;;;30.10;66.70;;;;;;5072247;28;20492;-63
2021/07/20 12:20:17;;;;;;;9.23;8.33;;;30.30;69.40;;;;;;5072680;28;20463;-63
2021/07/20 12:22:48;;;;;;;14.47;8.00;;;30.40;64.70;;;;;;5072503;28;20417;-63
2021/07/20 12:25:14;;;;;;;9.97;8.97;;;30.50;65.50;;;;;;5072699;28;20441;-63
2021/07/20 12:27:41;;;;;;;10.00;9.10;;;30.70;67.20;;;;;;5072219;28;20497;-64
2021/07/20 12:30:09;;;;;;;13.27;11.57;;;30.70;66.00;;;;;;5072519;28;20413;-63
2021/07/20 12:32:36;;;;;;;9.67;8.67;;;30.30;68.70;;;;;;5072492;28;20497;-63
2021/07/20 12:35:03;;;;;;;9.80;8.33;;;30.40;65.80;;;;;;5072400;28;20414;-63
2021/07/20 12:37:29;;;;;;;9.40;8.40;;;30.60;65.30;;;;;;5071938;28;20915;-63
2021/07/20 12:39:59;;;;;;;9.63;8.63;;;30.70;71.30;;;;;;5072302;28;20444;-64
2021/07/20 12:42:36;;;;;;;9.77;8.87;;;31.00;66.80;;;;;;5072349;28;20168;-63
2021/07/20 12:45:06;;;;;;;8.70;7.63;;;31.10;66.00;;;;;;5072187;28;20409;-63
2021/07/20 12:47:47;;;;;;;9.50;8.60;;;30.90;62.90;;;;;;5071788;28;20453;-64
2021/07/20 12:50:14;;;;;;;8.77;7.87;;;30.40;58.60;;;;;;5072113;28;20406;-63
2021/07/20 12:52:43;;;;;;;12.03;8.50;;;30.40;62.70;;;;;;5072027;28;20412;-63
2021/07/20 12:55:13;;;;;;;9.93;8.90;;;30.70;66.10;;;;;;5072127;28;20412;-64
2021/07/20 12:57:43;;;;;;;10.53;9.37;;;30.90;62.60;;;;;;5071774;28;20430;-64
2021/07/20 13:00:10;;;;;;;8.87;8.07;;;31.10;64.60;;;;;;5071805;28;20452;-63
2021/07/20 13:02:38;;;;;;;11.17;9.13;;;31.00;62.00;;;;;;5072008;28;20441;-63
2021/07/20 13:05:07;;;;;;;9.00;8.10;;;31.00;63.90;;;;;;5072085;28;20429;-64
2021/07/20 13:07:34;;;;;;;12.03;10.23;;;31.00;62.30;;;;;;5071438;28;20988;-64